CheckWX is a tool to help pilots better visualize weather data.  It is not intended as a substitute for an official pre-flight weather briefing.

14:43:38 UTC

KCMH METAR
John Glenn Columbus International Airport
Columbus, Ohio, USA
Current

53 mins ago

KCMH 221351Z 00000KT 10SM FEW250 12/06 A3026 RMK AO2 SLP246 T01220056
Observed
Apr-22 @ 13:51 UTC
Visibility
10 SM
Flight Rules
VFR
Cloud Levels
  • Few at 25,000' AGL
Temperature
12°C / 54°F
Dewpoint
C / 43°F
Humidity
67%
Altimeter
30.26" Hg
Pressure
1024.72 hPa
Previous

2 hours ago

KCMH 221251Z 15004KT 10SM FEW250 11/06 A3024 RMK AO2 SLP242 T01060061
Observed
Apr-22 @ 12:51 UTC
Wind
  • 150° at 4 KTS
Visibility
10 SM
Flight Rules
VFR
Cloud Levels
  • Few at 25,000' AGL
Temperature
11°C / 52°F
Dewpoint
C / 43°F
Humidity
72%
Altimeter
30.24" Hg
Pressure
1024.02 hPa
Previous

3 hours ago

KCMH 221151Z 10005KT 9SM BCFG FEW250 07/06 A3024 RMK AO2 SLP241 T00720061 10083 20050 53010
Observed
Apr-22 @ 11:51 UTC
Wind
  • 100° at 5 KTS
Visibility
9 SM
Flight Rules
VFR
Conditions
Patches of Fog
Cloud Levels
  • Few at 25,000' AGL
Temperature
C / 45°F
Dewpoint
C / 43°F
Humidity
93%
Altimeter
30.24" Hg
Pressure
1024.02 hPa